Time;durP1;ratioP1;P1;durP2;ratioP2;P2;SDS_P1;SDS_P2;PMS_P1;PMS_P2;Temp;Humidity;BMP_temperature;BMP_pressure;BME280_temperature;BME280_humidity;BME280_pressure;Samples;Min_cycle;Max_cycle;Signal;HPM_P1;HPM_P2
2023/10/27 00:04:46;;;;;;;7.00;6.47;;;;;;;;;;12695581;23;20028;-69
2023/10/27 00:09:42;;;;;;;9.55;6.53;;;;;;;;;;12695634;23;20354;-70
2023/10/27 00:14:40;;;;;;;9.40;6.85;;;;;;;;;;12690409;23;20028;-69
2023/10/27 00:19:36;;;;;;;7.00;6.50;;;;;;;;;;12695018;23;20024;-69
2023/10/27 00:24:33;;;;;;;7.70;6.78;;;;;;;;;;12695365;23;20024;-68
2023/10/27 00:29:29;;;;;;;7.03;6.47;;;;;;;;;;12699262;23;20024;-67
2023/10/27 00:34:25;;;;;;;7.07;6.47;;;;;;;;;;12698991;23;20020;-67
2023/10/27 00:39:22;;;;;;;7.10;6.50;;;;;;;;;;12698103;23;20058;-67
2023/10/27 00:44:18;;;;;;;7.72;7.13;;;;;;;;;;12696375;23;20032;-67
2023/10/27 00:49:15;;;;;;;6.80;6.25;;;;;;;;;;12695432;23;20028;-67
2023/10/27 00:54:12;;;;;;;8.00;7.20;;;;;;;;;;12696060;23;20020;-68
2023/10/27 00:59:09;;;;;;;7.40;6.70;;;;;;;;;;12696199;23;20020;-67
2023/10/27 01:04:05;;;;;;;7.57;6.97;;;;;;;;;;12696090;23;20063;-67
2023/10/27 01:09:02;;;;;;;7.40;6.80;;;;;;;;;;12694370;23;20097;-67
2023/10/27 01:13:58;;;;;;;7.35;6.65;;;;;;;;;;12693053;22;20031;-67
2023/10/27 01:18:55;;;;;;;7.10;6.45;;;;;;;;;;12698829;23;20025;-68
2023/10/27 01:23:51;;;;;;;6.90;6.40;;;;;;;;;;12699145;23;20625;-68
2023/10/27 01:28:48;;;;;;;6.63;6.13;;;;;;;;;;12672403;23;20028;-67
2023/10/27 01:33:44;;;;;;;6.43;5.93;;;;;;;;;;12697509;23;20051;-67
2023/10/27 01:38:41;;;;;;;6.32;5.82;;;;;;;;;;12699477;23;20030;-67
2023/10/27 01:43:38;;;;;;;6.15;5.65;;;;;;;;;;12693493;22;20103;-69
2023/10/27 01:48:36;;;;;;;6.35;5.75;;;;;;;;;;12673002;23;20362;-69
2023/10/27 01:53:33;;;;;;;6.15;5.57;;;;;;;;;;12696022;23;20103;-68
2023/10/27 01:58:30;;;;;;;5.75;5.28;;;;;;;;;;12698824;23;20477;-68
2023/10/27 02:03:27;;;;;;;6.43;5.82;;;;;;;;;;12698396;23;20492;-68
2023/10/27 02:08:23;;;;;;;6.00;5.50;;;;;;;;;;12698756;23;20027;-68
2023/10/27 02:13:20;;;;;;;6.50;5.90;;;;;;;;;;12698471;23;20074;-69
2023/10/27 02:18:16;;;;;;;6.75;6.25;;;;;;;;;;12699119;23;20078;-68
2023/10/27 02:23:12;;;;;;;6.85;6.20;;;;;;;;;;12691122;23;20093;-69
2023/10/27 02:28:09;;;;;;;6.72;5.93;;;;;;;;;;12697722;22;20031;-68
2023/10/27 02:33:05;;;;;;;6.38;5.88;;;;;;;;;;12698282;23;20370;-68
2023/10/27 02:38:04;;;;;;;8.70;6.43;;;;;;;;;;12698230;23;20101;-70
2023/10/27 02:43:00;;;;;;;7.03;6.32;;;;;;;;;;12670841;23;20397;-68
2023/10/27 02:47:58;;;;;;;6.93;6.30;;;;;;;;;;12691440;23;20016;-68
2023/10/27 02:52:55;;;;;;;6.63;6.03;;;;;;;;;;12671206;23;20074;-68
2023/10/27 02:57:51;;;;;;;6.65;6.07;;;;;;;;;;12697151;23;20032;-68
2023/10/27 03:02:48;;;;;;;6.30;5.80;;;;;;;;;;12696649;23;20052;-68
2023/10/27 03:07:44;;;;;;;6.78;6.28;;;;;;;;;;12697533;23;20030;-68
2023/10/27 03:12:41;;;;;;;7.00;6.40;;;;;;;;;;12695940;23;20024;-68
2023/10/27 03:17:37;;;;;;;7.50;6.80;;;;;;;;;;12695169;23;20028;-69
2023/10/27 03:22:34;;;;;;;6.90;6.40;;;;;;;;;;12696037;23;20024;-69
2023/10/27 03:27:32;;;;;;;7.57;7.07;;;;;;;;;;12697821;23;20028;-69
2023/10/27 03:32:28;;;;;;;7.22;6.63;;;;;;;;;;12696788;23;20051;-69
2023/10/27 03:37:25;;;;;;;7.15;6.63;;;;;;;;;;12690714;22;20032;-68
2023/10/27 03:42:21;;;;;;;8.18;7.40;;;;;;;;;;12696007;23;20028;-68
2023/10/27 03:47:17;;;;;;;8.95;8.15;;;;;;;;;;12696347;23;20028;-68
2023/10/27 03:52:14;;;;;;;10.27;8.00;;;;;;;;;;12689550;22;20038;-68
2023/10/27 03:57:10;;;;;;;8.32;7.63;;;;;;;;;;12695968;23;20481;-68
2023/10/27 04:02:06;;;;;;;9.00;8.10;;;;;;;;;;12696244;23;20028;-68
2023/10/27 04:07:03;;;;;;;8.23;7.43;;;;;;;;;;12696165;23;20078;-69
2023/10/27 04:11:59;;;;;;;8.95;8.15;;;;;;;;;;12695724;23;20078;-70
2023/10/27 04:16:56;;;;;;;9.02;8.23;;;;;;;;;;12695353;23;20028;-70
2023/10/27 04:21:52;;;;;;;9.10;8.38;;;;;;;;;;12669840;23;20474;-70
2023/10/27 04:26:48;;;;;;;8.80;8.13;;;;;;;;;;12696133;23;20055;-70
2023/10/27 04:31:45;;;;;;;7.90;7.25;;;;;;;;;;12696207;23;20024;-69
2023/10/27 04:36:41;;;;;;;8.10;7.50;;;;;;;;;;12696844;23;20074;-70
2023/10/27 04:41:38;;;;;;;8.82;7.93;;;;;;;;;;12695649;23;20078;-70
2023/10/27 04:46:34;;;;;;;7.20;6.70;;;;;;;;;;12693071;22;20033;-69
2023/10/27 04:51:30;;;;;;;8.05;7.45;;;;;;;;;;12700262;23;20086;-68
2023/10/27 04:56:28;;;;;;;8.73;8.02;;;;;;;;;;12695925;22;20024;-69
2023/10/27 05:01:25;;;;;;;8.07;7.45;;;;;;;;;;12699442;23;20024;-70
2023/10/27 05:06:25;;;;;;;8.20;7.63;;;;;;;;;;12699234;23;20187;-70
2023/10/27 05:11:22;;;;;;;7.82;7.20;;;;;;;;;;12699491;23;20047;-68
2023/10/27 05:16:19;;;;;;;8.00;7.50;;;;;;;;;;12699286;23;20082;-68
2023/10/27 05:21:17;;;;;;;8.15;7.53;;;;;;;;;;12698099;23;20492;-69
2023/10/27 05:26:14;;;;;;;7.80;7.30;;;;;;;;;;12699945;23;20433;-69
2023/10/27 05:31:10;;;;;;;9.07;8.38;;;;;;;;;;12697881;23;20031;-68
2023/10/27 05:36:07;;;;;;;8.85;7.90;;;;;;;;;;12696520;23;20028;-69
2023/10/27 05:41:03;;;;;;;8.30;7.53;;;;;;;;;;12697031;23;20035;-69
2023/10/27 05:45:59;;;;;;;11.60;8.32;;;;;;;;;;12693575;23;20358;-70
2023/10/27 05:50:56;;;;;;;8.90;8.23;;;;;;;;;;12691565;22;20075;-70
2023/10/27 05:55:52;;;;;;;8.63;8.02;;;;;;;;;;12696306;23;20024;-68
2023/10/27 06:00:48;;;;;;;8.00;7.50;;;;;;;;;;12697429;23;20024;-70
2023/10/27 06:05:45;;;;;;;8.63;8.02;;;;;;;;;;12670965;23;20085;-70
2023/10/27 06:10:41;;;;;;;8.98;8.27;;;;;;;;;;12696719;23;20032;-70
2023/10/27 06:15:37;;;;;;;9.63;8.82;;;;;;;;;;12697797;23;20027;-70
2023/10/27 06:20:34;;;;;;;8.40;7.70;;;;;;;;;;12692637;23;20024;-71
2023/10/27 06:25:47;;;;;;;9.82;9.13;;;;;;;;;;12694149;22;20044;-72
2023/10/27 06:30:53;;;;;;;9.73;9.03;;;;;;;;;;12669689;23;20024;-71
2023/10/27 06:35:50;;;;;;;9.75;8.85;;;;;;;;;;12681288;22;20431;-72
2023/10/27 06:40:47;;;;;;;9.20;8.32;;;;;;;;;;12697465;23;20016;-73
2023/10/27 06:45:44;;;;;;;12.40;9.43;;;;;;;;;;12697871;22;20466;-72
2023/10/27 06:50:40;;;;;;;9.25;8.45;;;;;;;;;;12697483;23;20074;-72
2023/10/27 06:55:37;;;;;;;9.10;8.32;;;;;;;;;;12697352;22;20031;-72
2023/10/27 07:00:33;;;;;;;8.38;7.78;;;;;;;;;;12698317;23;20022;-72
2023/10/27 07:05:29;;;;;;;8.75;8.07;;;;;;;;;;12697389;22;20020;-72
2023/10/27 07:10:26;;;;;;;8.82;8.13;;;;;;;;;;12696537;23;20359;-72
2023/10/27 07:15:23;;;;;;;8.90;8.20;;;;;;;;;;12691731;22;20016;-72
2023/10/27 07:20:19;;;;;;;8.70;8.00;;;;;;;;;;12696578;23;20354;-72
2023/10/27 07:25:16;;;;;;;8.18;7.32;;;;;;;;;;12695505;22;20016;-72
2023/10/27 07:30:13;;;;;;;10.93;8.52;;;;;;;;;;12696764;23;20031;-73
2023/10/27 07:35:09;;;;;;;10.68;8.50;;;;;;;;;;12697228;23;20493;-73
2023/10/27 07:40:42;;;;;;;8.27;7.68;;;;;;;;;;12698567;22;20024;-73
2023/10/27 08:20:37;;;;;;;8.65;7.95;;;;;;;;;;12314385;23;20007;-73
2023/10/27 08:26:43;;;;;;;;;;;;;;;;;;;;;
2023/10/27 08:32:31;;;;;;;8.02;7.15;;;;;;;;;;12274931;23;20099;-74
2023/10/27 08:38:44;;;;;;;9.07;7.30;;;;;;;;;;12138126;24;20024;-74
2023/10/27 08:50:25;;;;;;;10.13;9.13;;;;;;;;;;12673479;22;20020;-73
2023/10/27 08:55:21;;;;;;;21.07;10.70;;;;;;;;;;12690360;22;20020;-75
2023/10/27 09:00:17;;;;;;;9.32;8.55;;;;;;;;;;12699893;23;20059;-74
2023/10/27 09:05:14;;;;;;;8.52;7.82;;;;;;;;;;12700146;23;20537;-74
2023/10/27 09:10:10;;;;;;;8.07;7.47;;;;;;;;;;12700300;22;20020;-74
2023/10/27 09:15:07;;;;;;;22.38;12.80;;;;;;;;;;12673916;23;20409;-74
2023/10/27 09:20:05;;;;;;;15.77;10.50;;;;;;;;;;12700150;22;20055;-73
2023/10/27 09:25:14;;;;;;;16.10;10.27;;;;;;;;;;12690906;23;20067;-75
2023/10/27 09:30:12;;;;;;;16.05;10.43;;;;;;;;;;12698364;22;20016;-74
2023/10/27 09:35:15;;;;;;;9.88;8.98;;;;;;;;;;12700449;23;20027;-74
2023/10/27 09:40:13;;;;;;;17.92;9.82;;;;;;;;;;12697873;22;20016;-74
2023/10/27 09:45:16;;;;;;;10.70;8.52;;;;;;;;;;12697961;23;20374;-74
2023/10/27 10:23:27;;;;;;;9.23;8.43;;;;;;;;;;12687137;22;20454;-75
2023/10/27 10:35:07;;;;;;;10.52;9.18;;;;;;;;;;12499222;23;20018;-74
2023/10/27 10:52:18;;;;;;;9.38;8.48;;;;;;;;;;12697372;22;20450;-75
2023/10/27 10:57:19;;;;;;;9.50;8.80;;;;;;;;;;12698201;22;20102;-75
2023/10/27 11:02:20;;;;;;;9.45;8.55;;;;;;;;;;12697746;23;20024;-75
2023/10/27 11:07:18;;;;;;;9.70;8.40;;;;;;;;;;12697128;22;20068;-74
2023/10/27 11:12:25;;;;;;;9.20;8.50;;;;;;;;;;12671515;23;20035;-74
2023/10/27 11:29:08;;;;;;;8.45;7.75;;;;;;;;;;12708987;22;20016;-76
2023/10/27 11:48:00;;;;;;;;;;;;;;;;;;;;;
2023/10/27 15:49:52;;;;;;;10.18;9.38;;;;;;;;;;12586264;23;20107;-75
2023/10/27 15:54:49;;;;;;;10.23;9.43;;;;;;;;;;12694427;23;20028;-75
2023/10/27 15:59:45;;;;;;;10.30;9.60;;;;;;;;;;12694545;23;20532;-74
2023/10/27 16:04:45;;;;;;;9.70;9.05;;;;;;;;;;12668438;23;20031;-75
2023/10/27 20:00:10;;;;;;;9.48;8.68;;;;;;;;;;12712803;22;20104;-73
2023/10/27 20:05:24;;;;;;;9.07;8.18;;;;;;;;;;12630300;23;20040;-73
2023/10/27 20:10:42;;;;;;;9.38;8.45;;;;;;;;;;12611063;23;20087;-73
2023/10/27 20:15:40;;;;;;;9.00;8.20;;;;;;;;;;12629137;23;20039;-69
2023/10/27 20:20:37;;;;;;;9.45;8.57;;;;;;;;;;12632340;23;20024;-68
2023/10/27 20:25:34;;;;;;;9.52;8.68;;;;;;;;;;12631478;23;20025;-68
2023/10/27 20:30:30;;;;;;;8.65;7.97;;;;;;;;;;12630464;23;20017;-70
2023/10/27 20:35:27;;;;;;;8.93;8.25;;;;;;;;;;12632263;23;20020;-70
2023/10/27 20:40:24;;;;;;;8.27;7.68;;;;;;;;;;12624766;23;20017;-70
2023/10/27 20:45:20;;;;;;;8.23;7.63;;;;;;;;;;12634680;23;20028;-71
2023/10/27 20:50:18;;;;;;;8.80;8.20;;;;;;;;;;12634335;23;20025;-71
2023/10/27 20:55:20;;;;;;;9.18;8.48;;;;;;;;;;12633183;23;20021;-71
2023/10/27 21:00:17;;;;;;;8.55;7.88;;;;;;;;;;12629148;23;20020;-71
2023/10/27 21:05:13;;;;;;;9.27;8.57;;;;;;;;;;12631147;23;20036;-71
2023/10/27 21:10:10;;;;;;;9.73;8.98;;;;;;;;;;12632811;23;20024;-70
2023/10/27 21:15:07;;;;;;;8.90;8.23;;;;;;;;;;12634188;23;20016;-71
2023/10/27 21:20:05;;;;;;;9.75;9.05;;;;;;;;;;12634314;23;20027;-71
2023/10/27 21:25:02;;;;;;;9.15;8.45;;;;;;;;;;12633976;23;20035;-70
2023/10/27 21:29:58;;;;;;;10.15;8.93;;;;;;;;;;12638101;23;20347;-71
2023/10/27 21:34:55;;;;;;;10.05;9.35;;;;;;;;;;12637308;23;20020;-68
2023/10/27 21:39:51;;;;;;;10.05;9.27;;;;;;;;;;12637229;23;20108;-69
2023/10/27 21:44:47;;;;;;;9.30;8.50;;;;;;;;;;12632425;23;20485;-70
2023/10/27 21:49:44;;;;;;;11.32;10.32;;;;;;;;;;12636781;23;20096;-69
2023/10/27 21:54:42;;;;;;;10.15;9.35;;;;;;;;;;12636235;23;20024;-69
2023/10/27 21:59:39;;;;;;;10.75;9.85;;;;;;;;;;12637302;23;20075;-70
2023/10/27 22:04:35;;;;;;;10.40;9.60;;;;;;;;;;12636518;23;20023;-70
2023/10/27 22:09:32;;;;;;;11.43;10.43;;;;;;;;;;12635360;23;20096;-69
2023/10/27 22:14:29;;;;;;;10.95;9.95;;;;;;;;;;12634451;23;20108;-70
2023/10/27 22:19:26;;;;;;;10.35;9.55;;;;;;;;;;12625080;23;20021;-70
2023/10/27 22:24:23;;;;;;;10.52;9.63;;;;;;;;;;12623912;23;20630;-70
2023/10/27 22:29:20;;;;;;;10.65;9.75;;;;;;;;;;12624374;23;20091;-70
2023/10/27 22:34:16;;;;;;;12.00;11.00;;;;;;;;;;12621084;23;20711;-71
2023/10/27 22:39:12;;;;;;;10.90;9.90;;;;;;;;;;12613073;23;20306;-71
2023/10/27 22:44:09;;;;;;;11.68;10.68;;;;;;;;;;12609744;23;20024;-69
2023/10/27 22:49:05;;;;;;;11.20;10.18;;;;;;;;;;12613837;23;20024;-71
2023/10/27 22:54:03;;;;;;;11.43;10.43;;;;;;;;;;12613027;23;20028;-70
2023/10/27 22:58:59;;;;;;;12.25;11.15;;;;;;;;;;12615332;23;20075;-70
2023/10/27 23:03:56;;;;;;;11.38;10.45;;;;;;;;;;12613064;23;20382;-72
2023/10/27 23:08:53;;;;;;;12.73;11.55;;;;;;;;;;12614107;23;20021;-72
2023/10/27 23:13:49;;;;;;;11.32;10.35;;;;;;;;;;12614184;23;20036;-72
2023/10/27 23:18:45;;;;;;;11.02;9.95;;;;;;;;;;12613405;23;20055;-73
2023/10/27 23:23:42;;;;;;;12.82;11.05;;;;;;;;;;12612820;23;20531;-72
2023/10/27 23:28:39;;;;;;;14.32;10.57;;;;;;;;;;12614314;23;20136;-72
2023/10/27 23:33:39;;;;;;;12.07;10.85;;;;;;;;;;12613223;23;20459;-72
2023/10/27 23:38:38;;;;;;;10.88;9.93;;;;;;;;;;12613792;23;20083;-68
2023/10/27 23:43:34;;;;;;;11.57;10.57;;;;;;;;;;12613285;23;20028;-68
2023/10/27 23:48:32;;;;;;;12.15;11.15;;;;;;;;;;12607067;23;20032;-69
2023/10/27 23:53:30;;;;;;;11.00;10.10;;;;;;;;;;12613465;23;20115;-68
2023/10/27 23:58:26;;;;;;;12.05;10.95;;;;;;;;;;12611846;23;20083;-69
